createdAt,value
2022-12-13T00:01:47.719Z,4.28
2022-12-13T00:04:16.475Z,4.10
2022-12-13T00:06:45.247Z,3.95
2022-12-13T00:09:15.083Z,4.65
2022-12-13T00:11:43.591Z,4.50
2022-12-13T00:14:14.342Z,4.53
2022-12-13T00:16:48.839Z,5.53
2022-12-13T00:19:18.126Z,7.18
2022-12-13T00:21:47.223Z,7.75
2022-12-13T00:24:16.185Z,8.98
2022-12-13T00:26:44.662Z,9.07
2022-12-13T00:29:13.492Z,8.43
2022-12-13T00:32:00.866Z,8.40
2022-12-13T00:34:30.148Z,7.85
2022-12-13T00:36:59.718Z,7.22
2022-12-13T00:39:28.571Z,7.50
2022-12-13T00:41:57.098Z,7.60
2022-12-13T00:44:25.562Z,8.05
2022-12-13T00:46:55.380Z,7.50
2022-12-13T00:49:23.919Z,6.90
2022-12-13T00:51:52.326Z,6.82
2022-12-13T00:54:20.783Z,6.97
2022-12-13T00:56:51.314Z,7.20
2022-12-13T00:59:19.828Z,7.60
2022-12-13T01:01:48.450Z,6.85
2022-12-13T01:04:18.406Z,6.60
2022-12-13T01:06:49.908Z,6.55
2022-12-13T01:09:20.237Z,7.07
2022-12-13T01:11:49.047Z,6.60
2022-12-13T01:14:17.751Z,6.75
2022-12-13T01:16:46.375Z,6.13
2022-12-13T01:19:14.851Z,6.22
2022-12-13T01:21:44.711Z,6.30
2022-12-13T01:24:13.415Z,6.43
2022-12-13T01:26:41.965Z,6.00
2022-12-13T01:29:11.579Z,5.90
2022-12-13T01:31:41.889Z,5.60
2022-12-13T01:34:11.502Z,5.97
2022-12-13T01:36:40.242Z,5.60
2022-12-13T01:39:15.044Z,5.70
2022-12-13T01:41:45.530Z,6.50
2022-12-13T01:45:12.652Z,5.60
2022-12-13T01:47:43.735Z,5.47
2022-12-13T01:50:15.025Z,5.63
2022-12-13T01:52:43.662Z,5.55
2022-12-13T01:55:13.881Z,5.57
2022-12-13T01:57:45.674Z,6.30
2022-12-13T02:00:16.085Z,5.55
2022-12-13T02:02:44.645Z,6.03
2022-12-13T02:05:16.700Z,5.45
2022-12-13T02:07:45.385Z,4.75
2022-12-13T02:10:15.259Z,5.10
2022-12-13T02:12:43.792Z,4.97
2022-12-13T02:15:14.849Z,5.07
2022-12-13T02:18:06.174Z,5.78
2022-12-13T02:21:01.902Z,4.40
2022-12-13T02:24:08.944Z,5.03
2022-12-13T02:27:02.994Z,4.78
2022-12-13T02:30:20.880Z,4.90
2022-12-13T02:33:35.559Z,4.78
2022-12-13T02:36:10.096Z,4.55
2022-12-13T02:38:45.978Z,4.75
2022-12-13T02:41:18.519Z,5.10
2022-12-13T02:43:50.225Z,4.88
2022-12-13T02:46:22.649Z,5.10
2022-12-13T02:48:52.589Z,4.72
2022-12-13T02:51:21.098Z,4.68
2022-12-13T02:53:49.645Z,4.50
2022-12-13T02:56:18.600Z,4.88
2022-12-13T02:58:50.271Z,4.35
2022-12-13T03:01:41.290Z,4.32
2022-12-13T03:04:14.668Z,4.50
2022-12-13T03:06:51.994Z,4.47
2022-12-13T03:09:33.343Z,4.38
2022-12-13T03:12:32.755Z,4.53
2022-12-13T03:15:04.479Z,4.18
2022-12-13T03:17:38.688Z,4.25
2022-12-13T03:20:12.620Z,4.47
2022-12-13T03:22:52.312Z,4.45
2022-12-13T03:25:31.993Z,4.80
2022-12-13T03:28:02.647Z,4.68
2022-12-13T03:30:31.868Z,4.20
2022-12-13T03:33:02.002Z,4.65
2022-12-13T03:35:34.740Z,4.30
2022-12-13T03:38:13.218Z,4.43
2022-12-13T03:40:53.468Z,4.20
2022-12-13T03:43:22.986Z,4.07
2022-12-13T03:45:52.558Z,3.95
2022-12-13T03:48:23.594Z,3.90
2022-12-13T03:50:53.433Z,4.28
2022-12-13T03:53:33.213Z,3.83
2022-12-13T03:56:03.741Z,4.20
2022-12-13T03:58:35.796Z,4.30
2022-12-13T04:01:07.328Z,4.05
2022-12-13T04:03:37.651Z,3.97
2022-12-13T04:06:07.131Z,3.78
2022-12-13T04:08:35.801Z,4.10
2022-12-13T04:11:25.749Z,3.95
2022-12-13T04:13:53.457Z,3.70
2022-12-13T04:16:22.104Z,3.83
2022-12-13T04:18:51.956Z,4.07
2022-12-13T04:21:20.503Z,3.65
2022-12-13T04:23:48.902Z,3.58
2022-12-13T04:26:17.307Z,4.30
2022-12-13T04:28:50.844Z,3.78
2022-12-13T04:31:22.617Z,4.30
2022-12-13T04:33:52.561Z,4.18
2022-12-13T04:36:31.572Z,3.53
2022-12-13T04:39:02.416Z,3.92
2022-12-13T04:41:34.486Z,4.00
2022-12-13T04:44:03.524Z,3.88
2022-12-13T04:46:32.048Z,3.88
2022-12-13T04:49:01.929Z,4.10
2022-12-13T04:51:31.380Z,4.15
2022-12-13T04:54:23.693Z,3.95
2022-12-13T04:56:48.275Z,4.03
2022-12-13T04:59:16.830Z,3.90
2022-12-13T05:01:45.341Z,3.70
2022-12-13T05:04:15.273Z,3.85
2022-12-13T05:06:43.830Z,3.47
2022-12-13T05:09:12.309Z,3.97
2022-12-13T05:11:45.921Z,4.13
2022-12-13T05:14:14.794Z,3.55
2022-12-13T05:16:53.401Z,4.18
2022-12-13T05:19:31.595Z,4.30
2022-12-13T05:22:01.540Z,3.65
2022-12-13T05:24:31.928Z,3.90
2022-12-13T05:27:00.610Z,3.83
2022-12-13T05:29:29.241Z,3.63
2022-12-13T05:31:57.840Z,3.30
2022-12-13T05:34:28.146Z,3.80
2022-12-13T05:36:56.553Z,3.95
2022-12-13T05:39:28.888Z,3.70
2022-12-13T05:42:02.073Z,4.07
2022-12-13T05:44:32.508Z,3.35
2022-12-13T05:47:02.430Z,3.92
2022-12-13T05:49:33.170Z,3.72
2022-12-13T05:52:01.752Z,3.60
2022-12-13T05:54:30.283Z,3.60
2022-12-13T05:56:58.822Z,3.53
2022-12-13T05:59:27.435Z,3.88
2022-12-13T06:01:55.958Z,3.72
2022-12-13T06:04:24.424Z,3.60
2022-12-13T06:06:54.450Z,4.07
2022-12-13T06:09:23.076Z,3.88
2022-12-13T06:11:51.635Z,3.70
2022-12-13T06:14:29.448Z,3.78
2022-12-13T06:16:57.996Z,3.33
2022-12-13T06:19:26.671Z,3.90
2022-12-13T06:21:56.715Z,3.55
2022-12-13T06:24:25.314Z,3.70
2022-12-13T06:26:53.962Z,3.53
2022-12-13T06:29:25.458Z,3.42
2022-12-13T06:32:02.275Z,3.65
2022-12-13T06:34:34.030Z,3.90
2022-12-13T06:37:06.158Z,3.85
2022-12-13T06:39:34.796Z,3.58
2022-12-13T06:42:06.321Z,3.83
2022-12-13T06:44:35.259Z,3.58
2022-12-13T06:47:11.473Z,3.50
2022-12-13T06:49:43.626Z,3.95
2022-12-13T06:52:14.997Z,3.80
2022-12-13T06:54:43.877Z,3.85
2022-12-13T06:57:12.898Z,3.90
2022-12-13T06:59:41.936Z,4.22
2022-12-13T07:02:24.773Z,3.97
2022-12-13T07:04:55.555Z,4.70
2022-12-13T07:07:25.963Z,5.18
2022-12-13T07:09:54.696Z,5.35
2022-12-13T07:12:23.280Z,5.53
2022-12-13T07:14:52.056Z,5.07
2022-12-13T07:17:32.660Z,5.60
2022-12-13T07:20:02.867Z,5.10
2022-12-13T07:22:34.675Z,4.95
2022-12-13T07:25:06.006Z,5.07
2022-12-13T07:27:34.818Z,5.00
2022-12-13T07:30:03.818Z,4.93
2022-12-13T07:32:32.350Z,5.25
2022-12-13T07:35:00.962Z,4.80
2022-12-13T07:37:31.054Z,4.78
2022-12-13T07:40:04.469Z,4.88
2022-12-13T07:42:34.025Z,5.40
2022-12-13T07:45:02.615Z,4.35
2022-12-13T07:47:32.651Z,4.95
2022-12-13T07:50:01.570Z,5.00
2022-12-13T07:52:30.645Z,5.10
2022-12-13T07:54:59.199Z,4.93
2022-12-13T07:57:29.135Z,4.65
2022-12-13T07:59:58.287Z,5.28
2022-12-13T08:02:26.825Z,4.57
2022-12-13T08:04:55.625Z,4.68
2022-12-13T08:07:24.399Z,4.97
2022-12-13T08:09:53.423Z,4.70
2022-12-13T08:12:22.548Z,5.07
2022-12-13T08:14:53.591Z,4.65
2022-12-13T08:17:23.275Z,4.95
2022-12-13T08:19:51.762Z,4.35
2022-12-13T08:22:24.301Z,4.88
2022-12-13T08:24:53.266Z,4.88
2022-12-13T08:27:21.887Z,5.03
2022-12-13T08:29:50.401Z,4.57
2022-12-13T08:32:20.521Z,5.03
2022-12-13T08:34:49.323Z,4.82
2022-12-13T08:37:18.118Z,5.15
2022-12-13T08:39:46.803Z,4.38
2022-12-13T08:42:19.261Z,4.50
2022-12-13T08:44:49.646Z,5.18
2022-12-13T08:47:23.249Z,4.72
2022-12-13T08:50:01.425Z,5.10
2022-12-13T08:52:40.545Z,5.50
2022-12-13T08:55:11.382Z,5.80
2022-12-13T08:57:40.154Z,11.93
2022-12-13T09:00:11.368Z,8.30
2022-12-13T09:02:41.582Z,11.85
2022-12-13T09:05:10.934Z,12.27
2022-12-13T09:07:41.244Z,12.23
2022-12-13T09:10:28.748Z,10.55
2022-12-13T09:13:02.405Z,13.82
2022-12-13T09:15:34.270Z,11.40
2022-12-13T09:18:05.715Z,14.90
2022-12-13T09:20:41.312Z,14.95
2022-12-13T09:23:13.884Z,13.98
2022-12-13T09:26:05.998Z,20.30
2022-12-13T09:28:35.279Z,14.25
2022-12-13T09:31:08.152Z,15.45
2022-12-13T09:33:41.563Z,14.57
2022-12-13T09:36:12.653Z,14.73
2022-12-13T09:38:41.280Z,14.18
2022-12-13T09:41:20.224Z,13.95
2022-12-13T09:43:50.768Z,17.17
2022-12-13T09:46:34.298Z,16.55
2022-12-13T09:49:15.988Z,16.80
2022-12-13T09:52:10.199Z,18.25
2022-12-13T09:54:48.221Z,18.77
2022-12-13T09:57:30.665Z,16.92
2022-12-13T10:00:02.899Z,17.45
2022-12-13T10:02:33.210Z,16.02
2022-12-13T10:05:21.492Z,17.60
2022-12-13T10:07:52.395Z,42.33
2022-12-13T10:10:21.301Z,37.08
2022-12-13T10:12:53.896Z,32.22
2022-12-13T10:15:23.432Z,28.80
2022-12-13T10:17:55.131Z,27.13
2022-12-13T10:20:29.006Z,26.50
2022-12-13T10:25:51.987Z,27.58
2022-12-13T10:28:26.621Z,24.25
2022-12-13T10:30:55.410Z,23.20
2022-12-13T10:33:26.358Z,25.20
2022-12-13T10:36:09.148Z,23.10
2022-12-13T10:38:39.505Z,22.63
2022-12-13T10:41:31.272Z,22.95
2022-12-13T10:44:16.121Z,22.73
2022-12-13T10:46:50.216Z,21.55
2022-12-13T10:49:20.034Z,21.90
2022-12-13T10:51:50.515Z,21.73
2022-12-13T10:54:25.467Z,19.50
2022-12-13T10:57:00.228Z,20.20
2022-12-13T10:59:35.166Z,20.02
2022-12-13T11:02:04.478Z,19.00
2022-12-13T11:04:34.150Z,19.23
2022-12-13T11:07:23.919Z,19.38
2022-12-13T11:09:53.181Z,19.35
2022-12-13T11:12:23.402Z,19.02
2022-12-13T11:14:55.089Z,19.02
2022-12-13T11:17:25.453Z,18.63
2022-12-13T11:19:55.086Z,20.05
2022-12-13T11:22:27.087Z,19.15
2022-12-13T11:24:59.869Z,18.10
2022-12-13T11:27:56.419Z,18.25
2022-12-13T11:30:27.388Z,18.67
2022-12-13T11:33:17.588Z,17.83
2022-12-13T11:35:58.912Z,17.02
2022-12-13T11:38:33.810Z,41.05
2022-12-13T11:41:07.563Z,39.60
2022-12-13T11:43:39.083Z,33.33
2022-12-13T11:46:15.094Z,25.95
2022-12-13T11:48:46.887Z,28.52
2022-12-13T11:51:18.945Z,27.90
2022-12-13T11:53:55.041Z,24.92
2022-12-13T11:56:26.936Z,24.33
2022-12-13T11:59:04.244Z,23.83
2022-12-13T12:01:38.415Z,24.38
2022-12-13T12:04:15.656Z,23.70
2022-12-13T12:06:47.383Z,22.08
2022-12-13T12:09:19.007Z,22.67
2022-12-13T12:11:52.340Z,21.67
2022-12-13T12:14:24.398Z,20.58
2022-12-13T12:16:53.741Z,20.42
2022-12-13T12:19:24.438Z,20.45
2022-12-13T12:22:16.241Z,20.33
2022-12-13T12:24:58.453Z,21.00
2022-12-13T12:27:36.915Z,19.73
2022-12-13T12:30:22.836Z,19.35
2022-12-13T12:32:58.273Z,18.05
2022-12-13T12:36:08.076Z,18.55
2022-12-13T12:39:20.340Z,19.83
2022-12-13T12:42:11.900Z,17.17
2022-12-13T12:44:45.218Z,18.00
2022-12-13T12:47:49.085Z,16.90
2022-12-13T12:50:32.663Z,17.23
2022-12-13T12:53:12.906Z,17.48
2022-12-13T12:55:53.829Z,17.25
2022-12-13T12:58:32.327Z,17.15
2022-12-13T13:01:12.691Z,16.75
2022-12-13T13:03:42.718Z,15.50
2022-12-13T13:06:13.371Z,16.40
2022-12-13T13:08:44.399Z,15.82
2022-12-13T13:11:24.021Z,15.85
2022-12-13T13:14:06.837Z,14.80
2022-12-13T13:16:38.694Z,16.25
2022-12-13T13:19:07.361Z,15.40
2022-12-13T13:21:47.283Z,14.93
2022-12-13T13:24:21.831Z,15.35
2022-12-13T13:26:52.414Z,14.68
2022-12-13T13:29:32.464Z,15.70
2022-12-13T13:32:03.200Z,15.23
2022-12-13T13:34:33.075Z,15.45
2022-12-13T13:37:02.299Z,14.40
2022-12-13T13:40:02.079Z,13.93
2022-12-13T13:42:31.111Z,14.55
2022-12-13T13:45:20.330Z,13.25
2022-12-13T13:48:14.656Z,13.98
2022-12-13T13:51:20.283Z,13.55
2022-12-13T13:54:06.983Z,13.05
2022-12-13T13:58:07.625Z,13.32
2022-12-13T14:00:24.375Z,13.07
2022-12-13T14:03:41.932Z,12.68
2022-12-13T14:07:08.623Z,13.23
2022-12-13T14:10:23.694Z,13.13
2022-12-13T14:13:45.133Z,11.98
2022-12-13T14:16:52.947Z,12.52
2022-12-13T14:20:08.572Z,12.68
2022-12-13T14:22:39.637Z,13.23
2022-12-13T14:25:52.177Z,12.45
2022-12-13T14:28:45.937Z,12.27
2022-12-13T14:31:21.592Z,12.23
2022-12-13T14:33:53.148Z,12.23
2022-12-13T14:36:29.093Z,12.10
2022-12-13T14:39:02.376Z,11.98
2022-12-13T14:41:30.995Z,12.55
2022-12-13T14:44:17.722Z,12.43
2022-12-13T14:46:51.913Z,11.93
2022-12-13T14:49:22.370Z,12.48
2022-12-13T14:51:53.770Z,12.00
2022-12-13T14:54:26.113Z,12.02
2022-12-13T14:56:59.419Z,11.60
2022-12-13T14:59:28.177Z,11.60
2022-12-13T15:01:59.024Z,11.82
2022-12-13T15:04:31.364Z,11.70
2022-12-13T15:07:06.643Z,11.63
2022-12-13T15:09:38.394Z,12.13
2022-12-13T15:12:23.871Z,10.75
2022-12-13T15:14:59.797Z,11.43
2022-12-13T15:17:34.119Z,11.77
2022-12-13T15:20:12.314Z,11.23
2022-12-13T15:22:40.799Z,11.18
2022-12-13T15:25:13.876Z,10.73
2022-12-13T15:27:42.503Z,11.02
2022-12-13T15:30:17.525Z,10.63
2022-12-13T15:33:04.096Z,11.02
2022-12-13T15:35:34.073Z,10.85
2022-12-13T15:38:02.822Z,11.57
2022-12-13T15:40:31.353Z,10.65
2022-12-13T15:43:00.085Z,10.45
2022-12-13T15:45:34.946Z,10.43
2022-12-13T15:48:05.784Z,10.13
2022-12-13T15:50:37.600Z,10.27
2022-12-13T15:53:08.324Z,10.45
2022-12-13T15:55:37.834Z,10.73
2022-12-13T15:58:25.794Z,11.27
2022-12-13T16:00:54.610Z,10.15
2022-12-13T16:03:24.721Z,10.48
2022-12-13T16:05:55.999Z,10.70
2022-12-13T16:08:29.479Z,10.55
2022-12-13T16:10:58.324Z,10.82
2022-12-13T16:13:28.056Z,10.82
2022-12-13T16:16:00.221Z,10.77
2022-12-13T16:18:44.872Z,10.32
2022-12-13T16:21:15.348Z,10.45
2022-12-13T16:23:48.483Z,10.63
2022-12-13T16:26:23.119Z,10.55
2022-12-13T16:28:51.770Z,10.88
2022-12-13T16:31:22.176Z,10.13
2022-12-13T16:33:50.965Z,10.43
2022-12-13T16:36:20.980Z,9.80
2022-12-13T16:38:49.656Z,10.25
2022-12-13T16:41:18.139Z,10.07
2022-12-13T16:43:53.069Z,9.48
2022-12-13T16:47:13.098Z,10.60
2022-12-13T16:49:22.809Z,10.43
2022-12-13T16:51:52.672Z,9.90
2022-12-13T16:54:22.038Z,10.45
2022-12-13T16:56:50.691Z,10.07
2022-12-13T16:59:22.481Z,9.98
2022-12-13T17:01:51.503Z,9.50
2022-12-13T17:04:22.530Z,9.98
2022-12-13T17:06:54.938Z,9.80
2022-12-13T17:09:24.468Z,10.63
2022-12-13T17:11:53.024Z,10.45
2022-12-13T17:14:21.595Z,10.00
2022-12-13T17:16:50.111Z,9.82
2022-12-13T17:19:18.839Z,9.63
2022-12-13T17:21:47.501Z,9.55
2022-12-13T17:24:17.450Z,10.38
2022-12-13T17:26:54.005Z,9.48
2022-12-13T17:29:25.020Z,10.13
2022-12-13T17:31:53.736Z,9.45
2022-12-13T17:34:22.350Z,10.85
2022-12-13T17:36:50.863Z,9.13
2022-12-13T17:39:21.527Z,9.45
2022-12-13T17:41:55.510Z,9.48
2022-12-13T17:44:25.658Z,8.70
2022-12-13T17:46:55.611Z,9.50
2022-12-13T17:49:24.877Z,9.65
2022-12-13T17:51:54.449Z,9.35
2022-12-13T17:54:25.374Z,9.52
2022-12-13T17:56:54.550Z,9.25
2022-12-13T17:59:23.193Z,9.98
2022-12-13T18:01:51.999Z,10.27
2022-12-13T18:04:20.920Z,10.00
2022-12-13T18:06:49.484Z,9.38
2022-12-13T18:09:18.035Z,10.25
2022-12-13T18:11:48.019Z,10.30
2022-12-13T18:14:16.546Z,10.65
2022-12-13T18:16:45.079Z,9.88
2022-12-13T18:19:15.005Z,10.18
2022-12-13T18:21:44.379Z,9.68
2022-12-13T18:24:13.231Z,9.40
2022-12-13T18:26:41.855Z,9.93
2022-12-13T18:29:11.747Z,9.95
2022-12-13T18:31:41.164Z,10.85
2022-12-13T18:34:10.057Z,10.32
2022-12-13T18:36:39.660Z,10.15
2022-12-13T18:39:08.118Z,9.93
2022-12-13T18:41:36.686Z,9.30
2022-12-13T18:44:08.056Z,10.32
2022-12-13T18:46:39.787Z,9.65
2022-12-13T18:49:11.928Z,9.80
2022-12-13T18:51:40.461Z,9.70
2022-12-13T18:54:08.984Z,10.00
2022-12-13T18:56:37.550Z,9.65
2022-12-13T18:59:06.206Z,9.98
2022-12-13T19:01:35.797Z,9.65
2022-12-13T19:04:05.989Z,9.45
2022-12-13T19:06:34.945Z,9.30
2022-12-13T19:09:03.454Z,9.32
2022-12-13T19:11:32.012Z,9.90
2022-12-13T19:14:00.732Z,9.18
2022-12-13T19:16:29.606Z,10.05
2022-12-13T19:18:58.812Z,8.82
2022-12-13T19:21:28.894Z,10.05
2022-12-13T19:23:58.773Z,9.45
2022-12-13T19:26:28.237Z,9.35
2022-12-13T19:28:57.486Z,9.35
2022-12-13T19:31:31.063Z,9.23
2022-12-13T19:34:01.993Z,9.38
2022-12-13T19:36:33.724Z,9.57
2022-12-13T19:39:02.335Z,9.60
2022-12-13T19:41:32.328Z,8.88
2022-12-13T19:44:04.679Z,8.45
2022-12-13T19:46:33.713Z,8.75
2022-12-13T19:49:02.397Z,8.93
2022-12-13T19:51:39.066Z,9.00
2022-12-13T19:54:08.351Z,9.13
2022-12-13T19:56:36.920Z,9.30
2022-12-13T19:59:05.463Z,9.25
2022-12-13T20:01:34.170Z,8.98
2022-12-13T20:04:03.025Z,9.13
2022-12-13T20:06:33.084Z,9.00
2022-12-13T20:09:01.962Z,9.25
2022-12-13T20:11:31.472Z,9.35
2022-12-13T20:14:00.060Z,8.82
2022-12-13T20:16:29.084Z,8.98
2022-12-13T20:18:58.368Z,9.85
2022-12-13T20:21:27.322Z,9.82
2022-12-13T20:23:57.806Z,10.38
2022-12-13T20:26:28.147Z,9.05
2022-12-13T20:28:57.526Z,9.77
2022-12-13T20:31:29.122Z,9.68
2022-12-13T20:33:57.968Z,10.00
2022-12-13T20:36:28.762Z,9.23
2022-12-13T20:38:59.869Z,8.80
2022-12-13T20:41:29.694Z,9.82
2022-12-13T20:43:59.736Z,9.23
2022-12-13T20:46:28.857Z,9.02
2022-12-13T20:48:58.920Z,8.95
2022-12-13T20:51:28.618Z,8.85
2022-12-13T20:53:58.707Z,8.90
2022-12-13T20:56:28.779Z,9.10
2022-12-13T20:58:57.276Z,9.00
2022-12-13T21:01:27.314Z,10.20
2022-12-13T21:03:56.439Z,8.90
2022-12-13T21:06:24.920Z,9.18
2022-12-13T21:08:54.670Z,9.52
2022-12-13T21:11:26.524Z,9.13
2022-12-13T21:14:06.910Z,9.68
2022-12-13T21:16:38.726Z,9.82
2022-12-13T21:19:07.474Z,9.90
2022-12-13T21:21:36.114Z,9.93
2022-12-13T21:24:04.754Z,10.50
2022-12-13T21:26:35.946Z,9.95
2022-12-13T21:29:07.580Z,10.10
2022-12-13T21:31:36.828Z,9.90
2022-12-13T21:34:06.549Z,9.50
2022-12-13T21:36:36.165Z,10.48
2022-12-13T21:39:08.073Z,10.13
2022-12-13T21:41:38.068Z,9.45
2022-12-13T21:44:06.784Z,9.98
2022-12-13T21:47:10.350Z,9.25
2022-12-13T21:49:24.044Z,9.35
2022-12-13T21:51:52.783Z,9.13
2022-12-13T21:54:22.002Z,9.75
2022-12-13T21:57:09.338Z,10.07
2022-12-13T21:59:37.892Z,8.95
2022-12-13T22:02:14.805Z,9.23
2022-12-13T22:04:44.681Z,8.93
2022-12-13T22:07:14.544Z,9.15
2022-12-13T22:09:43.152Z,9.32
2022-12-13T22:12:20.717Z,9.48
2022-12-13T22:14:49.513Z,9.68
2022-12-13T22:17:18.313Z,8.80
2022-12-13T22:19:48.786Z,9.32
2022-12-13T22:22:19.405Z,8.65
2022-12-13T22:24:53.217Z,8.60
2022-12-13T22:27:25.750Z,7.70
2022-12-13T22:29:56.129Z,8.77
2022-12-13T22:32:24.877Z,8.90
2022-12-13T22:34:53.454Z,9.70
2022-12-13T22:37:21.994Z,9.23
2022-12-13T22:39:50.933Z,8.85
2022-12-13T22:42:19.462Z,8.73
2022-12-13T22:44:49.351Z,8.45
2022-12-13T22:47:18.173Z,8.77
2022-12-13T22:49:48.548Z,8.38
2022-12-13T22:52:18.090Z,8.73
2022-12-13T22:54:46.599Z,8.40
2022-12-13T22:57:15.103Z,9.35
2022-12-13T22:59:43.811Z,8.38
2022-12-13T23:02:13.782Z,8.95
2022-12-13T23:04:42.389Z,8.13
2022-12-13T23:07:10.940Z,9.07
2022-12-13T23:09:39.506Z,9.20
2022-12-13T23:12:25.840Z,8.75
2022-12-13T23:14:54.589Z,8.48
2022-12-13T23:17:24.399Z,9.05
2022-12-13T23:19:53.313Z,8.98
2022-12-13T23:22:23.367Z,9.48
2022-12-13T23:24:51.995Z,9.20
2022-12-13T23:27:21.860Z,9.18
2022-12-13T23:29:50.984Z,10.02
2022-12-13T23:32:19.552Z,9.18
2022-12-13T23:34:49.499Z,9.38
2022-12-13T23:37:18.194Z,9.80
2022-12-13T23:39:46.676Z,9.73
2022-12-13T23:42:15.316Z,8.98
2022-12-13T23:44:43.992Z,9.73
2022-12-13T23:47:12.455Z,9.40
2022-12-13T23:49:40.919Z,9.82
2022-12-13T23:52:11.275Z,9.70
2022-12-13T23:54:39.727Z,10.10
2022-12-13T23:57:08.358Z,10.38
2022-12-13T23:59:37.068Z,9.68
